Time;durP1;ratioP1;P1;durP2;ratioP2;P2;SDS_P1;SDS_P2;PMS_P1;PMS_P2;Temp;Humidity;BMP_temperature;BMP_pressure;BME280_temperature;BME280_humidity;BME280_pressure;Samples;Min_cycle;Max_cycle;Signal;HPM_P1;HPM_P2
2020/12/07 00:02:32;;;;;;;17.05;8.00;;;4.80;99.90;;;;;;4955089;28;20194;-73
2020/12/07 00:04:57;;;;;;;21.15;7.15;;;4.70;99.90;;;;;;4955141;28;20162;-73
2020/12/07 00:07:25;;;;;;;5.43;4.90;;;4.90;99.90;;;;;;4955077;28;20159;-73
2020/12/07 00:09:51;;;;;;;20.60;8.23;;;4.90;99.90;;;;;;4955059;28;20162;-73
2020/12/07 00:12:16;;;;;;;12.23;4.50;;;4.90;99.90;;;;;;4954910;28;20250;-73
2020/12/07 00:14:42;;;;;;;7.05;4.18;;;4.90;99.90;;;;;;4954990;28;20206;-73
2020/12/07 00:17:07;;;;;;;5.32;4.60;;;4.60;99.90;;;;;;4957409;28;20155;-73
2020/12/07 00:19:33;;;;;;;10.18;7.57;;;4.60;99.90;;;;;;4961199;28;20695;-72
2020/12/07 00:21:58;;;;;;;4.30;3.97;;;4.50;99.90;;;;;;4961274;28;20728;-72
2020/12/07 00:24:24;;;;;;;8.55;6.00;;;4.40;99.90;;;;;;4961277;28;20697;-72
2020/12/07 00:26:49;;;;;;;11.30;3.63;;;4.40;99.90;;;;;;4961279;28;20521;-72
2020/12/07 00:29:15;;;;;;;10.35;5.10;;;4.50;99.90;;;;;;4961282;28;20578;-72
2020/12/07 00:31:41;;;;;;;7.25;6.55;;;4.80;99.90;;;;;;4961102;28;20191;-72
2020/12/07 00:34:06;;;;;;;4.95;4.43;;;4.70;99.90;;;;;;4961143;28;20225;-72
2020/12/07 00:36:32;;;;;;;3.85;3.50;;;4.60;99.90;;;;;;4961110;28;20206;-73
2020/12/07 00:38:57;;;;;;;5.88;3.28;;;4.50;99.90;;;;;;4961167;28;20167;-73
2020/12/07 00:41:24;;;;;;;15.65;5.93;;;4.60;99.90;;;;;;4961061;28;20190;-73
2020/12/07 00:43:50;;;;;;;8.68;7.05;;;4.90;99.90;;;;;;4961189;28;20213;-73
2020/12/07 00:46:17;;;;;;;8.15;4.50;;;5.00;99.90;;;;;;4961133;28;20619;-73
2020/12/07 00:48:42;;;;;;;11.82;4.88;;;4.80;99.90;;;;;;4961150;28;20227;-73
2020/12/07 00:51:08;;;;;;;15.98;5.38;;;4.70;99.90;;;;;;4961176;28;20689;-73
2020/12/07 00:53:34;;;;;;;8.57;3.63;;;5.00;99.90;;;;;;4961135;28;20257;-73
2020/12/07 00:56:00;;;;;;;3.95;3.67;;;5.00;99.90;;;;;;4960999;28;20213;-73
2020/12/07 00:58:25;;;;;;;26.17;6.40;;;5.00;99.90;;;;;;4961004;28;20657;-73
2020/12/07 01:00:51;;;;;;;26.15;6.10;;;5.10;99.90;;;;;;4960986;28;20199;-73
2020/12/07 01:03:17;;;;;;;10.13;4.07;;;5.10;99.90;;;;;;4960927;28;20198;-72
2020/12/07 01:05:42;;;;;;;6.10;4.85;;;4.80;99.90;;;;;;4960983;28;20178;-73
2020/12/07 01:08:08;;;;;;;11.95;3.50;;;4.50;99.90;;;;;;4960798;28;20170;-72
2020/12/07 01:10:33;;;;;;;5.25;2.55;;;4.40;99.90;;;;;;4960919;28;20182;-72
2020/12/07 01:12:59;;;;;;;7.43;3.88;;;4.40;99.90;;;;;;4960942;28;20282;-72
2020/12/07 01:15:24;;;;;;;2.30;2.20;;;4.30;99.90;;;;;;4960819;28;20253;-72
2020/12/07 01:17:50;;;;;;;2.10;2.00;;;4.20;99.90;;;;;;4960951;28;20171;-72
2020/12/07 01:20:15;;;;;;;4.75;4.03;;;4.10;99.90;;;;;;4960617;28;20220;-72
2020/12/07 01:22:41;;;;;;;3.28;3.00;;;4.30;99.90;;;;;;4960832;28;20562;-72
2020/12/07 01:25:07;;;;;;;10.82;3.00;;;4.10;99.90;;;;;;4960753;28;20225;-72
2020/12/07 01:27:32;;;;;;;3.42;3.00;;;4.20;99.90;;;;;;4960737;28;20171;-72
2020/12/07 01:29:58;;;;;;;4.60;2.83;;;4.40;99.90;;;;;;4957014;28;20158;-72
2020/12/07 01:32:23;;;;;;;2.77;2.33;;;4.30;99.90;;;;;;4957661;28;20229;-72
2020/12/07 01:34:49;;;;;;;5.40;3.38;;;4.00;99.90;;;;;;4957518;28;20256;-72
2020/12/07 01:37:15;;;;;;;4.55;3.63;;;3.80;99.90;;;;;;4957612;28;20162;-72
2020/12/07 01:39:41;;;;;;;4.40;4.03;;;3.80;99.90;;;;;;4957606;28;20177;-72
2020/12/07 01:42:07;;;;;;;3.05;2.95;;;4.10;99.90;;;;;;4957489;28;20190;-72
2020/12/07 01:44:33;;;;;;;13.80;4.93;;;4.20;99.90;;;;;;4957578;28;20631;-73
2020/12/07 01:47:01;;;;;;;4.05;2.90;;;4.20;99.90;;;;;;4957401;28;20635;-73
2020/12/07 01:49:27;;;;;;;5.07;3.38;;;4.10;99.90;;;;;;4957328;28;20173;-73
2020/12/07 01:51:53;;;;;;;1.70;1.65;;;4.10;99.90;;;;;;4956035;28;20277;-73
2020/12/07 01:54:19;;;;;;;4.78;3.65;;;4.00;99.90;;;;;;4957245;28;20533;-73
2020/12/07 01:56:47;;;;;;;4.30;4.00;;;4.10;99.90;;;;;;4957298;28;20166;-74
2020/12/07 01:59:13;;;;;;;6.90;4.07;;;4.00;99.90;;;;;;4955894;29;20193;-73
2020/12/07 02:01:38;;;;;;;3.00;2.90;;;3.90;99.90;;;;;;4957151;28;20686;-72
2020/12/07 02:04:05;;;;;;;7.93;4.22;;;3.90;99.90;;;;;;4957180;28;20686;-72
2020/12/07 02:06:30;;;;;;;2.72;2.55;;;3.90;99.90;;;;;;4957186;28;20171;-72
2020/12/07 02:08:56;;;;;;;3.28;2.67;;;3.70;99.90;;;;;;4957108;28;20174;-72
2020/12/07 02:11:21;;;;;;;9.68;5.57;;;3.70;99.90;;;;;;4956856;28;20190;-72
2020/12/07 02:13:47;;;;;;;14.90;5.32;;;3.60;99.90;;;;;;4957021;28;20568;-74
2020/12/07 02:16:12;;;;;;;12.00;4.80;;;3.70;99.90;;;;;;4956879;28;20622;-72
2020/12/07 02:18:38;;;;;;;11.23;3.23;;;3.60;99.90;;;;;;4956945;28;20167;-72
2020/12/07 02:21:04;;;;;;;5.00;3.50;;;3.60;99.90;;;;;;4956599;28;20316;-72
2020/12/07 02:23:29;;;;;;;1.77;1.67;;;3.70;99.90;;;;;;4956751;28;20170;-72
2020/12/07 02:25:55;;;;;;;1.90;1.83;;;3.70;99.90;;;;;;4956760;28;20167;-72
2020/12/07 02:28:21;;;;;;;3.63;3.33;;;3.70;99.90;;;;;;4956747;28;20171;-72
2020/12/07 02:30:46;;;;;;;2.78;2.58;;;3.80;99.90;;;;;;4955439;29;20185;-72
2020/12/07 02:33:12;;;;;;;3.08;2.75;;;3.80;99.90;;;;;;4956563;28;20732;-72
2020/12/07 02:35:37;;;;;;;4.72;4.25;;;3.90;99.90;;;;;;4956420;28;20554;-72
2020/12/07 02:38:06;;;;;;;3.22;3.03;;;4.10;99.90;;;;;;4956502;28;20278;-72
2020/12/07 02:40:31;;;;;;;6.05;3.70;;;4.00;99.90;;;;;;4956383;28;20279;-72
2020/12/07 02:42:59;;;;;;;17.95;4.43;;;3.90;99.90;;;;;;4956242;28;20274;-73
2020/12/07 02:45:25;;;;;;;5.90;4.57;;;3.90;99.90;;;;;;4956357;28;20167;-72
2020/12/07 02:47:51;;;;;;;6.43;4.43;;;3.80;99.90;;;;;;4956381;28;20697;-72
2020/12/07 02:50:16;;;;;;;2.90;2.70;;;3.90;99.90;;;;;;4956607;28;20174;-72
2020/12/07 02:52:42;;;;;;;5.28;3.65;;;4.10;99.90;;;;;;4956151;28;20186;-72
2020/12/07 02:55:10;;;;;;;2.28;2.15;;;3.90;99.90;;;;;;4956153;28;20208;-72
2020/12/07 02:57:36;;;;;;;8.20;3.45;;;3.90;99.90;;;;;;4956125;28;20626;-72
2020/12/07 03:00:05;;;;;;;4.80;4.35;;;4.20;99.90;;;;;;4956097;28;20159;-72
2020/12/07 03:02:32;;;;;;;4.68;2.80;;;4.20;99.90;;;;;;4956043;28;20187;-72
2020/12/07 03:04:57;;;;;;;2.95;2.75;;;4.00;99.90;;;;;;4956135;28;20199;-72
2020/12/07 03:07:23;;;;;;;6.68;3.97;;;4.00;99.90;;;;;;4955948;28;20202;-72
2020/12/07 03:09:48;;;;;;;7.25;5.55;;;4.10;99.90;;;;;;4956005;28;20171;-72
2020/12/07 03:12:14;;;;;;;6.28;3.40;;;3.90;99.90;;;;;;4955778;28;20194;-72
2020/12/07 03:14:40;;;;;;;9.73;4.38;;;4.10;99.90;;;;;;4955864;28;20179;-73
2020/12/07 03:17:05;;;;;;;3.53;2.80;;;4.10;99.90;;;;;;4955916;28;20246;-72
2020/12/07 03:19:31;;;;;;;10.68;3.65;;;4.00;99.90;;;;;;4955483;28;20166;-72
2020/12/07 03:21:56;;;;;;;3.78;3.45;;;4.10;99.90;;;;;;4955640;28;20675;-72
2020/12/07 03:24:22;;;;;;;14.10;6.80;;;3.80;99.90;;;;;;4955594;28;20631;-72
2020/12/07 03:26:48;;;;;;;35.70;7.15;;;3.80;99.90;;;;;;4955867;28;20177;-72
2020/12/07 03:29:13;;;;;;;2.80;2.63;;;3.90;99.90;;;;;;4955638;28;20174;-72
2020/12/07 03:31:40;;;;;;;7.82;4.47;;;4.00;99.90;;;;;;4955497;28;20538;-73
2020/12/07 03:34:07;;;;;;;3.13;2.93;;;4.10;99.90;;;;;;4955600;28;20253;-72
2020/12/07 03:36:33;;;;;;;13.48;3.35;;;4.00;99.90;;;;;;4955742;28;20281;-72
2020/12/07 03:38:59;;;;;;;4.32;4.03;;;3.90;99.90;;;;;;4955515;28;20170;-72
2020/12/07 03:41:24;;;;;;;1.70;1.65;;;3.90;99.90;;;;;;4955518;28;20668;-72
2020/12/07 03:43:50;;;;;;;5.18;4.05;;;3.80;99.90;;;;;;4955326;28;20611;-72
2020/12/07 03:46:16;;;;;;;7.35;5.45;;;3.90;99.90;;;;;;4955325;28;20234;-72
2020/12/07 03:48:42;;;;;;;1.33;1.33;;;3.90;99.90;;;;;;4955352;28;20634;-72
2020/12/07 03:51:08;;;;;;;2.95;2.05;;;4.10;99.90;;;;;;4955103;28;20198;-72
2020/12/07 03:53:35;;;;;;;2.28;2.08;;;4.30;99.90;;;;;;4955101;28;20623;-72
2020/12/07 03:56:02;;;;;;;4.05;3.78;;;4.30;99.90;;;;;;4955021;28;20198;-71
2020/12/07 03:58:28;;;;;;;16.13;5.22;;;4.20;99.90;;;;;;4955267;28;20170;-72
2020/12/07 04:00:54;;;;;;;6.00;5.25;;;4.20;99.90;;;;;;4955133;28;20181;-72
2020/12/07 04:03:21;;;;;;;4.68;3.92;;;4.20;99.90;;;;;;4955172;28;20163;-72
2020/12/07 04:05:50;;;;;;;14.40;3.88;;;4.20;99.90;;;;;;4955143;28;20648;-72
2020/12/07 04:08:16;;;;;;;2.70;2.58;;;4.40;99.90;;;;;;4955188;28;20189;-72
2020/12/07 04:10:42;;;;;;;2.65;2.45;;;4.40;99.90;;;;;;4955008;28;20167;-72
2020/12/07 04:13:07;;;;;;;2.00;1.90;;;4.40;99.90;;;;;;4954957;28;20573;-72
2020/12/07 04:15:33;;;;;;;5.43;4.70;;;4.30;99.90;;;;;;4955051;28;20297;-72
2020/12/07 04:17:59;;;;;;;8.23;4.32;;;4.40;99.90;;;;;;4955166;28;20533;-72
2020/12/07 04:20:25;;;;;;;5.00;2.10;;;4.40;99.90;;;;;;4954677;28;20222;-72
2020/12/07 04:22:51;;;;;;;4.47;4.18;;;4.40;99.90;;;;;;4955228;28;20195;-72
2020/12/07 04:25:17;;;;;;;16.20;3.47;;;4.30;99.90;;;;;;4954871;28;20177;-72
2020/12/07 04:27:42;;;;;;;3.70;3.40;;;4.30;99.90;;;;;;4954843;28;20658;-72
2020/12/07 04:30:08;;;;;;;23.95;3.60;;;4.10;99.90;;;;;;4954870;28;20159;-72
2020/12/07 04:32:34;;;;;;;7.65;3.85;;;4.00;99.90;;;;;;4954735;28;20549;-72
2020/12/07 04:34:59;;;;;;;17.77;2.65;;;4.00;99.90;;;;;;4954762;28;20210;-72
2020/12/07 04:37:25;;;;;;;3.70;2.33;;;4.10;99.90;;;;;;4954841;28;20163;-72
2020/12/07 04:39:51;;;;;;;9.68;3.10;;;4.10;99.90;;;;;;4954741;28;20166;-72
2020/12/07 04:42:18;;;;;;;6.25;2.40;;;4.30;99.90;;;;;;4954629;28;20191;-72
2020/12/07 04:44:43;;;;;;;2.88;2.42;;;4.40;99.90;;;;;;4954647;28;20249;-72
2020/12/07 04:47:13;;;;;;;3.95;3.28;;;4.40;99.90;;;;;;4954665;28;20298;-73
2020/12/07 04:49:39;;;;;;;3.75;3.47;;;4.20;99.90;;;;;;4953442;29;20179;-73
2020/12/07 04:52:05;;;;;;;2.60;2.42;;;4.10;99.90;;;;;;4954410;28;20195;-73
2020/12/07 04:54:33;;;;;;;2.95;2.70;;;4.10;99.90;;;;;;4954482;28;20169;-73
2020/12/07 04:56:59;;;;;;;3.65;3.05;;;4.00;99.90;;;;;;4954605;28;20174;-73
2020/12/07 04:59:25;;;;;;;2.72;2.55;;;4.00;99.90;;;;;;4953261;29;20177;-73
2020/12/07 05:01:51;;;;;;;2.75;2.65;;;4.00;99.90;;;;;;4954547;28;20186;-73
2020/12/07 05:04:17;;;;;;;4.38;3.78;;;3.80;99.90;;;;;;4955844;28;20175;-73
2020/12/07 05:06:42;;;;;;;1.63;1.53;;;3.90;99.90;;;;;;4958244;28;20246;-74
2020/12/07 05:09:09;;;;;;;4.03;2.63;;;3.90;99.90;;;;;;4956500;29;20261;-73
2020/12/07 05:11:35;;;;;;;1.93;1.83;;;3.80;99.90;;;;;;4957940;28;20285;-73
2020/12/07 05:14:08;;;;;;;8.95;4.55;;;3.80;99.90;;;;;;4958229;28;20245;-73
2020/12/07 05:16:33;;;;;;;2.03;1.92;;;3.90;99.90;;;;;;4957963;28;20222;-72
2020/12/07 05:19:08;;;;;;;0.97;0.97;;;3.60;99.90;;;;;;4957778;28;20548;-72
2020/12/07 05:21:35;;;;;;;8.87;5.37;;;3.60;99.90;;;;;;4957586;28;20260;-73
2020/12/07 05:24:00;;;;;;;1.20;1.20;;;3.60;99.90;;;;;;4957824;28;20209;-72
2020/12/07 05:26:28;;;;;;;7.80;3.88;;;3.50;99.90;;;;;;4957675;28;20191;-72
2020/12/07 05:29:03;;;;;;;3.40;2.17;;;3.60;99.90;;;;;;4957755;28;20162;-72
2020/12/07 05:31:35;;;;;;;3.10;1.87;;;3.60;99.90;;;;;;4957542;28;20194;-72
2020/12/07 05:34:01;;;;;;;7.60;3.07;;;3.40;99.90;;;;;;4957500;28;20574;-72
2020/12/07 05:36:26;;;;;;;2.23;2.00;;;3.50;99.90;;;;;;4957872;28;20222;-72
2020/12/07 05:38:52;;;;;;;4.27;1.93;;;3.50;99.90;;;;;;4957474;28;20618;-73
2020/12/07 05:41:23;;;;;;;7.13;4.57;;;3.50;99.90;;;;;;4957385;28;20642;-71
2020/12/07 05:43:52;;;;;;;3.37;2.03;;;3.60;99.90;;;;;;4957343;28;20173;-73
2020/12/07 05:46:18;;;;;;;3.38;3.17;;;3.70;99.90;;;;;;4957507;28;20166;-73
2020/12/07 05:48:45;;;;;;;6.63;3.05;;;4.00;99.90;;;;;;4957374;28;20174;-71
2020/12/07 05:51:13;;;;;;;2.40;2.30;;;3.90;99.90;;;;;;4957305;28;20272;-71
2020/12/07 05:53:40;;;;;;;4.13;3.83;;;3.90;99.90;;;;;;4957272;28;20166;-72
2020/12/07 05:56:08;;;;;;;5.13;4.23;;;3.70;99.90;;;;;;4957198;28;20205;-72
2020/12/07 05:58:56;;;;;;;11.68;3.55;;;3.60;99.90;;;;;;4957199;28;20177;-72
2020/12/07 06:01:27;;;;;;;3.13;2.83;;;3.80;99.90;;;;;;4955664;28;20199;-72
2020/12/07 06:03:54;;;;;;;10.90;3.33;;;3.90;99.90;;;;;;4956881;28;20158;-72
2020/12/07 06:06:33;;;;;;;2.77;2.47;;;3.90;99.90;;;;;;4956970;29;20858;-72
2020/12/07 06:09:10;;;;;;;4.93;2.65;;;3.80;99.90;;;;;;4957055;28;20181;-72
2020/12/07 06:11:56;;;;;;;2.50;2.40;;;3.70;99.90;;;;;;4956788;28;20731;-72
2020/12/07 06:14:22;;;;;;;2.20;2.10;;;3.70;99.90;;;;;;4956489;28;20159;-72
2020/12/07 06:16:49;;;;;;;1.70;1.60;;;3.80;99.90;;;;;;4956746;28;20190;-72
2020/12/07 06:19:16;;;;;;;1.35;1.27;;;3.90;99.90;;;;;;4956674;28;20199;-72
2020/12/07 06:21:49;;;;;;;1.93;1.83;;;3.80;99.90;;;;;;4956631;28;20218;-72
2020/12/07 06:24:15;;;;;;;2.50;2.23;;;3.60;99.90;;;;;;4956651;28;20166;-73
2020/12/07 06:26:40;;;;;;;10.20;4.03;;;3.60;99.90;;;;;;4955274;29;20185;-72
2020/12/07 06:29:06;;;;;;;3.20;2.77;;;3.70;99.90;;;;;;4956497;28;20174;-72
2020/12/07 06:31:36;;;;;;;5.90;3.22;;;3.80;99.90;;;;;;4956393;28;20224;-73
2020/12/07 06:34:10;;;;;;;4.25;3.08;;;3.80;99.90;;;;;;4956596;28;20155;-73
2020/12/07 06:36:37;;;;;;;10.00;4.83;;;3.60;99.90;;;;;;4955184;29;20206;-73
2020/12/07 06:39:08;;;;;;;10.60;3.00;;;3.60;99.90;;;;;;4956101;28;20626;-73
2020/12/07 06:41:46;;;;;;;5.83;1.73;;;3.50;99.90;;;;;;4954893;28;20226;-72
2020/12/07 06:44:22;;;;;;;2.13;2.03;;;3.40;99.90;;;;;;4954882;29;20661;-72
2020/12/07 06:46:59;;;;;;;13.25;3.38;;;3.40;99.90;;;;;;4955993;28;20161;-74
2020/12/07 06:52:11;;;;;;;1.23;1.13;;;3.60;99.90;;;;;;4955524;28;20308;-75
2020/12/07 06:57:30;;;;;;;7.50;3.60;;;3.60;99.90;;;;;;4956058;29;20244;-72
2020/12/07 07:00:18;;;;;;;2.97;1.77;;;3.80;99.90;;;;;;4955732;28;20182;-72
2020/12/07 07:02:48;;;;;;;2.17;2.07;;;3.70;99.90;;;;;;4955629;28;20221;-73
2020/12/07 07:05:16;;;;;;;2.55;2.45;;;3.80;99.90;;;;;;4955711;28;20175;-73
2020/12/07 07:07:42;;;;;;;6.30;4.07;;;3.80;99.90;;;;;;4955442;28;20174;-73
2020/12/07 07:10:10;;;;;;;13.27;5.10;;;4.00;99.90;;;;;;4954473;29;20171;-72
2020/12/07 07:12:36;;;;;;;6.13;3.90;;;3.90;99.90;;;;;;4955444;28;20194;-73
2020/12/07 07:15:04;;;;;;;5.53;2.80;;;3.80;99.90;;;;;;4955337;28;20273;-76
2020/12/07 07:17:32;;;;;;;4.77;4.00;;;3.80;99.90;;;;;;4955336;28;20563;-72
2020/12/07 07:19:58;;;;;;;5.63;3.17;;;3.60;99.90;;;;;;4955223;28;20674;-72
2020/12/07 07:22:25;;;;;;;5.27;2.53;;;3.60;99.90;;;;;;4955213;28;20202;-72
2020/12/07 07:25:08;;;;;;;1.33;1.33;;;3.90;99.90;;;;;;4955295;28;20173;-73
2020/12/07 07:30:19;;;;;;;7.32;4.68;;;3.70;99.90;;;;;;4955158;29;20241;-72
2020/12/07 07:32:46;;;;;;;1.55;1.55;;;3.60;99.90;;;;;;4955111;28;20188;-72
2020/12/07 07:35:15;;;;;;;8.25;1.85;;;3.70;99.90;;;;;;4955213;28;20194;-72
2020/12/07 07:37:40;;;;;;;3.33;3.13;;;3.80;99.90;;;;;;4954542;28;20535;-72
2020/12/07 07:40:09;;;;;;;1.30;1.30;;;3.80;99.90;;;;;;4954851;28;20234;-72
2020/12/07 07:42:43;;;;;;;3.07;1.87;;;3.80;99.90;;;;;;4953538;28;20222;-72
2020/12/07 07:45:10;;;;;;;2.83;2.63;;;3.90;99.90;;;;;;4955077;28;20214;-72
2020/12/07 07:47:44;;;;;;;10.52;4.13;;;4.00;99.90;;;;;;4954980;28;20186;-72
2020/12/07 08:06:15;;;;;;;5.25;3.42;;;4.10;99.90;;;;;;4954715;28;20532;-73
2020/12/07 08:17:17;;;;;;;2.75;2.50;;;3.90;99.90;;;;;;4952435;29;20689;-74
2020/12/07 08:19:46;;;;;;;3.28;3.08;;;4.10;99.90;;;;;;4952301;28;20193;-71
2020/12/07 08:22:16;;;;;;;2.13;2.03;;;4.10;99.90;;;;;;4951411;28;20198;-72
2020/12/07 08:25:01;;;;;;;3.70;3.40;;;4.20;99.90;;;;;;4938275;29;20186;-73
2020/12/07 08:27:37;;;;;;;2.67;2.45;;;4.30;99.90;;;;;;4953473;28;20514;-72
2020/12/07 08:30:06;;;;;;;9.10;2.78;;;4.30;99.90;;;;;;4953681;28;20165;-72
2020/12/07 08:32:32;;;;;;;3.13;2.83;;;4.30;99.90;;;;;;4953180;28;20642;-72
2020/12/07 08:34:59;;;;;;;4.95;2.22;;;4.40;99.90;;;;;;4952904;28;20198;-73
2020/12/07 08:37:25;;;;;;;4.60;3.95;;;4.40;99.90;;;;;;4953018;28;20171;-72
2020/12/07 08:39:52;;;;;;;12.80;5.15;;;4.10;99.90;;;;;;4956164;28;20162;-72
2020/12/07 08:42:18;;;;;;;2.95;2.75;;;4.20;99.90;;;;;;4952217;28;20207;-72
2020/12/07 08:44:43;;;;;;;5.35;3.75;;;4.10;99.90;;;;;;4937833;29;20280;-72
2020/12/07 08:47:10;;;;;;;3.15;3.05;;;4.10;99.90;;;;;;4937700;29;20192;-72
2020/12/07 08:49:36;;;;;;;3.28;2.53;;;4.10;99.90;;;;;;4938229;29;20235;-72
2020/12/07 08:52:03;;;;;;;2.35;2.25;;;4.20;99.90;;;;;;4936836;29;20198;-72
2020/12/07 08:54:28;;;;;;;6.50;2.40;;;4.20;99.90;;;;;;4938527;29;20234;-72
2020/12/07 08:56:54;;;;;;;2.65;2.42;;;4.30;99.90;;;;;;4937907;29;20203;-72
2020/12/07 08:59:19;;;;;;;4.38;4.00;;;4.00;99.90;;;;;;4937808;29;20197;-74
2020/12/07 09:01:45;;;;;;;5.23;3.07;;;3.90;99.90;;;;;;4936714;29;20202;-73
2020/12/07 09:04:11;;;;;;;11.88;3.33;;;3.90;99.90;;;;;;4937864;29;20168;-73
2020/12/07 09:06:40;;;;;;;4.82;3.78;;;3.90;99.90;;;;;;4937845;29;20172;-74
2020/12/07 09:09:09;;;;;;;3.00;2.80;;;4.00;99.90;;;;;;4938104;29;20706;-80
2020/12/07 09:11:35;;;;;;;1.48;1.48;;;4.20;99.90;;;;;;4936923;29;20195;-79
2020/12/07 09:14:06;;;;;;;4.88;3.35;;;4.20;99.90;;;;;;4955604;29;20198;-79
2020/12/07 09:16:32;;;;;;;3.15;2.97;;;4.20;99.90;;;;;;4957115;28;20297;-78
2020/12/07 09:18:58;;;;;;;3.85;3.03;;;4.20;99.90;;;;;;4956265;28;20175;-78
2020/12/07 09:21:23;;;;;;;3.90;1.92;;;4.50;99.90;;;;;;4956393;28;20241;-77
2020/12/07 09:23:49;;;;;;;3.80;3.58;;;4.40;99.90;;;;;;4956993;28;20268;-79
2020/12/07 09:26:15;;;;;;;2.35;2.25;;;4.50;99.90;;;;;;4956724;28;20186;-79
2020/12/07 09:28:40;;;;;;;6.55;4.63;;;4.50;99.90;;;;;;4956504;28;20163;-79
2020/12/07 09:31:06;;;;;;;3.55;3.30;;;4.50;99.90;;;;;;4956838;28;20171;-78
2020/12/07 09:33:33;;;;;;;3.20;2.97;;;4.30;99.90;;;;;;4956629;28;20163;-76
2020/12/07 09:35:59;;;;;;;3.65;2.75;;;4.50;99.90;;;;;;4956822;28;20603;-80
2020/12/07 09:38:25;;;;;;;2.35;2.22;;;4.50;99.90;;;;;;4956260;28;20182;-78
2020/12/07 09:40:50;;;;;;;3.50;3.22;;;4.30;99.90;;;;;;4956404;28;20205;-79
2020/12/07 09:43:16;;;;;;;3.88;3.58;;;4.10;99.90;;;;;;4956394;28;20666;-79
2020/12/07 09:45:41;;;;;;;6.68;2.60;;;4.00;99.90;;;;;;4956102;28;20230;-79
2020/12/07 09:48:07;;;;;;;3.37;3.13;;;3.80;99.90;;;;;;4954991;28;20205;-79
2020/12/07 09:50:34;;;;;;;2.58;2.40;;;3.70;99.90;;;;;;4956115;28;20253;-78
2020/12/07 09:52:59;;;;;;;24.57;5.57;;;3.70;99.90;;;;;;4956162;28;20273;-79
2020/12/07 09:55:25;;;;;;;3.90;3.57;;;3.60;99.90;;;;;;4955897;28;20734;-79
2020/12/07 09:57:51;;;;;;;17.13;6.47;;;3.50;99.90;;;;;;4956057;28;20650;-78
2020/12/07 10:00:17;;;;;;;22.67;7.88;;;3.40;99.90;;;;;;4956057;28;20254;-79
2020/12/07 10:02:44;;;;;;;5.32;3.85;;;3.60;99.90;;;;;;4956288;28;20190;-79
2020/12/07 10:05:10;;;;;;;6.28;5.65;;;3.80;99.90;;;;;;4955407;28;20254;-79
2020/12/07 10:07:35;;;;;;;6.38;2.40;;;3.80;99.90;;;;;;4954942;29;20266;-82
2020/12/07 10:10:01;;;;;;;6.70;4.20;;;4.00;99.90;;;;;;4955885;28;20155;-77
2020/12/07 10:12:26;;;;;;;5.10;4.07;;;4.40;99.90;;;;;;4954098;29;20290;-78
2020/12/07 10:14:54;;;;;;;4.13;3.65;;;4.30;99.90;;;;;;4955734;28;20167;-72
2020/12/07 10:17:20;;;;;;;10.18;4.88;;;4.20;99.90;;;;;;4955695;28;20159;-73
2020/12/07 10:19:46;;;;;;;6.55;4.05;;;4.20;99.90;;;;;;4955526;28;20178;-72
2020/12/07 10:22:12;;;;;;;10.17;6.73;;;4.20;99.90;;;;;;4954660;28;20431;-72
2020/12/07 10:24:37;;;;;;;15.18;7.15;;;4.40;99.90;;;;;;4955413;28;20171;-72
2020/12/07 10:27:03;;;;;;;3.90;3.30;;;4.50;99.90;;;;;;4955406;28;20162;-72
2020/12/07 10:29:28;;;;;;;7.03;3.40;;;4.40;99.90;;;;;;4955564;28;20198;-72
2020/12/07 10:31:55;;;;;;;2.85;2.75;;;4.60;99.90;;;;;;4939670;28;20191;-72
2020/12/07 10:34:22;;;;;;;10.75;5.88;;;4.60;99.90;;;;;;4953391;29;20174;-73
2020/12/07 10:36:47;;;;;;;24.77;2.95;;;4.60;99.90;;;;;;4954038;28;20206;-74
2020/12/07 10:39:13;;;;;;;18.80;5.30;;;4.30;99.90;;;;;;4955231;28;20262;-78
2020/12/07 10:41:39;;;;;;;6.85;6.45;;;4.20;99.90;;;;;;4954640;28;20198;-78
2020/12/07 10:44:05;;;;;;;8.00;5.63;;;4.20;99.90;;;;;;4936126;28;20179;-78
2020/12/07 10:46:30;;;;;;;4.88;4.50;;;3.90;99.90;;;;;;4935561;29;20178;-79
2020/12/07 10:48:56;;;;;;;6.53;5.68;;;4.10;99.90;;;;;;4935603;29;20172;-79
2020/12/07 10:51:21;;;;;;;8.05;5.05;;;4.30;99.90;;;;;;4935817;29;20222;-78
2020/12/07 10:53:47;;;;;;;5.82;5.22;;;4.20;99.90;;;;;;4935692;29;20529;-78
2020/12/07 10:56:16;;;;;;;5.03;4.45;;;4.20;99.90;;;;;;4935408;29;20211;-79
2020/12/07 10:58:42;;;;;;;4.22;3.90;;;4.30;99.90;;;;;;4935860;29;20210;-78
2020/12/07 11:01:09;;;;;;;8.68;4.43;;;4.50;99.90;;;;;;4947947;28;20203;-78
2020/12/07 11:03:35;;;;;;;7.70;5.57;;;4.40;99.90;;;;;;4953548;28;20511;-78
2020/12/07 11:06:10;;;;;;;13.10;4.78;;;4.30;99.90;;;;;;4954812;28;20206;-79
2020/12/07 11:08:39;;;;;;;5.28;4.90;;;4.30;99.90;;;;;;4954610;28;20490;-79
2020/12/07 11:11:07;;;;;;;12.35;4.55;;;4.40;99.90;;;;;;4954414;28;20194;-78
2020/12/07 11:13:33;;;;;;;5.93;4.90;;;4.30;99.90;;;;;;4953942;29;20252;-76
2020/12/07 11:16:04;;;;;;;3.45;3.15;;;4.40;99.90;;;;;;4957163;28;20266;-76
2020/12/07 11:18:31;;;;;;;7.78;6.15;;;4.50;99.90;;;;;;4959310;28;20166;-77
2020/12/07 11:20:57;;;;;;;1.75;1.65;;;4.70;99.90;;;;;;4961659;29;20229;-77
2020/12/07 11:23:23;;;;;;;8.80;5.78;;;4.70;99.90;;;;;;4955970;28;20167;-79
2020/12/07 11:25:49;;;;;;;24.95;5.05;;;4.60;99.90;;;;;;4952786;29;20536;-73
2020/12/07 11:28:15;;;;;;;3.88;3.65;;;4.60;99.90;;;;;;4953666;28;20178;-72
2020/12/07 11:30:40;;;;;;;8.95;6.28;;;4.70;99.90;;;;;;4945174;28;20186;-77
2020/12/07 11:33:06;;;;;;;2.70;1.98;;;4.70;99.90;;;;;;4944984;29;20201;-72
2020/12/07 11:35:32;;;;;;;7.47;2.58;;;4.50;99.90;;;;;;4953861;28;20202;-72
2020/12/07 11:38:13;;;;;;;14.43;4.10;;;4.60;99.90;;;;;;4953796;28;20293;-73
2020/12/07 11:41:50;;;;;;;4.22;3.90;;;4.70;99.90;;;;;;4953915;28;20150;-73
2020/12/07 11:43:42;;;;;;;3.72;3.20;;;4.80;99.90;;;;;;4953370;28;20178;-73
2020/12/07 11:46:07;;;;;;;10.43;3.45;;;4.80;99.90;;;;;;4955047;28;20309;-73
2020/12/07 11:48:45;;;;;;;4.22;3.90;;;4.90;99.90;;;;;;4954996;28;20611;-73
2020/12/07 11:51:10;;;;;;;3.63;3.38;;;5.00;99.90;;;;;;4953681;29;20192;-73
2020/12/07 11:53:36;;;;;;;5.93;4.28;;;5.30;99.90;;;;;;4954866;28;20167;-72
2020/12/07 11:56:01;;;;;;;2.20;2.10;;;5.50;99.90;;;;;;4954856;28;20578;-73
2020/12/07 11:58:27;;;;;;;4.47;2.67;;;5.50;99.90;;;;;;4955110;28;20219;-73
2020/12/07 12:00:52;;;;;;;2.10;1.55;;;5.50;99.90;;;;;;4954709;28;20178;-74
2020/12/07 12:03:18;;;;;;;6.47;3.45;;;5.30;99.90;;;;;;4955107;28;20682;-73
2020/12/07 12:05:43;;;;;;;4.60;4.25;;;5.30;99.90;;;;;;4954674;28;20202;-73
2020/12/07 12:08:09;;;;;;;6.13;4.15;;;5.40;99.90;;;;;;4954499;28;20622;-72
2020/12/07 12:10:34;;;;;;;6.00;2.58;;;5.50;99.90;;;;;;4954713;28;20669;-72
2020/12/07 12:13:00;;;;;;;1.17;1.17;;;5.50;99.90;;;;;;4953204;28;20205;-73
2020/12/07 12:15:26;;;;;;;1.90;1.80;;;5.50;99.90;;;;;;4935491;29;20203;-73
2020/12/07 12:17:51;;;;;;;1.90;1.83;;;5.30;99.90;;;;;;4935955;29;20175;-74
2020/12/07 12:20:17;;;;;;;6.20;3.42;;;5.50;99.90;;;;;;4934044;29;20218;-73
2020/12/07 12:22:42;;;;;;;3.25;2.95;;;5.40;99.90;;;;;;4935945;29;20691;-74
2020/12/07 12:25:08;;;;;;;2.50;2.40;;;5.30;99.90;;;;;;4934062;29;20646;-72
2020/12/07 12:27:33;;;;;;;10.63;3.90;;;5.30;99.90;;;;;;4935719;29;20527;-76
2020/12/07 12:29:59;;;;;;;2.58;2.38;;;5.40;99.90;;;;;;4935850;29;20561;-75
2020/12/07 12:32:24;;;;;;;2.25;2.15;;;5.60;99.90;;;;;;4935506;29;20286;-73
2020/12/07 12:34:50;;;;;;;5.30;3.55;;;5.60;99.90;;;;;;4935519;29;20242;-73
2020/12/07 12:37:15;;;;;;;6.22;4.00;;;5.60;99.90;;;;;;4935476;29;20171;-72
2020/12/07 12:39:41;;;;;;;4.50;4.20;;;5.40;99.90;;;;;;4937375;29;20189;-74
2020/12/07 12:42:07;;;;;;;3.65;3.35;;;5.30;99.90;;;;;;4952972;28;20546;-73
2020/12/07 12:44:32;;;;;;;1.98;1.88;;;5.50;99.90;;;;;;4949771;28;20171;-71
2020/12/07 12:46:58;;;;;;;3.58;2.80;;;5.40;99.90;;;;;;4953192;28;20186;-72
2020/12/07 12:49:24;;;;;;;13.05;6.35;;;5.50;99.90;;;;;;4954356;28;20182;-74
2020/12/07 12:51:49;;;;;;;2.65;2.50;;;5.50;99.90;;;;;;4954203;28;20267;-72
2020/12/07 12:54:15;;;;;;;5.00;4.53;;;5.70;99.90;;;;;;4954405;28;20693;-73
2020/12/07 12:56:41;;;;;;;4.43;3.85;;;5.80;99.90;;;;;;4954160;28;20202;-77
2020/12/07 12:59:07;;;;;;;4.45;3.65;;;5.90;99.90;;;;;;4954899;28;20222;-72
2020/12/07 13:01:37;;;;;;;9.95;2.90;;;6.10;99.90;;;;;;4953802;28;20207;-73
2020/12/07 13:04:03;;;;;;;12.10;4.90;;;6.30;99.90;;;;;;4954669;28;20213;-75
2020/12/07 13:06:35;;;;;;;3.80;3.50;;;6.20;99.90;;;;;;4951774;28;20589;-74
2020/12/07 13:09:02;;;;;;;8.48;4.60;;;6.30;99.90;;;;;;4953905;28;20186;-73
2020/12/07 13:11:32;;;;;;;9.75;5.22;;;6.10;99.90;;;;;;4940456;28;20245;-75
2020/12/07 13:13:58;;;;;;;21.40;4.22;;;6.10;99.90;;;;;;4938804;29;20210;-74
2020/12/07 13:16:28;;;;;;;4.20;2.42;;;5.90;99.90;;;;;;4953073;28;20289;-74
2020/12/07 13:18:56;;;;;;;2.50;2.28;;;5.80;99.90;;;;;;4953121;28;20167;-74
2020/12/07 13:21:38;;;;;;;4.53;2.72;;;5.70;99.90;;;;;;4948336;28;20693;-76
2020/12/07 13:24:13;;;;;;;3.65;3.33;;;5.90;99.90;;;;;;4934595;29;20219;-73
2020/12/07 13:26:56;;;;;;;3.35;3.20;;;5.90;99.90;;;;;;4949378;29;20191;-72
2020/12/07 13:29:22;;;;;;;3.22;3.00;;;5.80;99.90;;;;;;4952646;29;20194;-75